Time;durP1;ratioP1;P1;durP2;ratioP2;P2;SDS_P1;SDS_P2;PMS_P1;PMS_P2;Temp;Humidity;BMP_temperature;BMP_pressure;BME280_temperature;BME280_humidity;BME280_pressure;Samples;Min_cycle;Max_cycle;Signal;HPM_P1;HPM_P2
2023/05/12 00:00:21;;;;;;;6.40;2.33;;;;;;;14.16;88.72;100401.78;5108188;28;20084;-63
2023/05/12 00:02:47;;;;;;;3.90;2.42;;;;;;;14.22;89.81;100411.97;5108342;28;20040;-62
2023/05/12 00:05:12;;;;;;;2.78;2.45;;;;;;;14.19;90.35;100407.69;5108174;28;20061;-62
2023/05/12 00:07:37;;;;;;;5.28;2.47;;;;;;;14.12;90.91;100403.09;5108703;28;20147;-63
2023/05/12 00:10:04;;;;;;;5.78;3.03;;;;;;;14.16;91.51;100409.88;5107947;28;20385;-64
2023/05/12 00:12:29;;;;;;;6.45;3.22;;;;;;;14.10;92.36;100405.97;5096939;28;20035;-62
2023/05/12 00:14:55;;;;;;;3.75;2.60;;;;;;;14.07;92.85;100397.31;5108279;28;20027;-62
2023/05/12 00:17:21;;;;;;;2.88;2.28;;;;;;;14.02;93.69;100389.69;5108099;28;20023;-62
2023/05/12 00:19:47;;;;;;;2.80;2.40;;;;;;;14.04;93.63;100394.91;5087122;28;20024;-62
2023/05/12 00:22:13;;;;;;;3.78;2.53;;;;;;;13.99;93.75;100384.59;5107800;28;20051;-62
2023/05/12 00:24:39;;;;;;;2.83;2.50;;;;;;;13.94;94.09;100380.69;5108205;28;20050;-62
2023/05/12 00:27:06;;;;;;;3.22;2.60;;;;;;;13.96;94.72;100392.16;5107715;28;20376;-63
2023/05/12 00:29:32;;;;;;;3.55;2.63;;;;;;;13.86;94.07;100373.34;5108067;28;20487;-62
2023/05/12 00:31:58;;;;;;;2.90;2.38;;;;;;;13.84;94.47;100383.47;5107642;28;20032;-62
2023/05/12 00:34:24;;;;;;;4.95;2.83;;;;;;;13.89;94.90;100400.00;5108252;28;20072;-62
2023/05/12 00:36:49;;;;;;;2.78;2.45;;;;;;;13.72;95.46;100365.81;5107991;28;20114;-67
2023/05/12 00:39:14;;;;;;;2.63;2.35;;;;;;;13.76;95.39;100369.06;5107712;28;20032;-67
2023/05/12 00:41:40;;;;;;;2.65;2.45;;;;;;;13.75;95.37;100368.19;5107999;28;20027;-67
2023/05/12 00:44:06;;;;;;;4.32;3.00;;;;;;;13.84;96.08;100388.84;5089227;28;20486;-67
2023/05/12 00:46:31;;;;;;;4.07;2.90;;;;;;;13.87;95.91;100399.34;5108343;28;20023;-67
2023/05/12 00:48:57;;;;;;;3.72;2.80;;;;;;;13.83;96.39;100389.84;5111483;28;20028;-67
2023/05/12 00:51:24;;;;;;;3.53;2.58;;;;;;;13.87;95.91;100401.16;5111046;28;20536;-62
2023/05/12 00:53:50;;;;;;;3.20;2.90;;;;;;;13.85;96.65;100387.84;5111193;28;20084;-63
2023/05/12 00:56:18;;;;;;;2.95;2.65;;;;;;;13.85;96.69;100395.94;5110414;28;20034;-67
2023/05/12 00:58:44;;;;;;;5.30;2.88;;;;;;;13.74;96.64;100366.53;5111032;28;20027;-67
2023/05/12 01:01:09;;;;;;;3.42;2.92;;;;;;;13.83;96.61;100380.91;5091254;28;20353;-67
2023/05/12 01:03:38;;;;;;;3.08;2.67;;;;;;;13.86;96.53;100378.75;5110461;28;20042;-66
2023/05/12 01:06:45;;;;;;;4.22;2.80;;;;;;;13.83;97.39;100387.13;5110275;28;20470;-67
2023/05/12 01:09:10;;;;;;;4.20;3.17;;;;;;;13.85;97.39;100392.38;5046674;28;20489;-67
2023/05/12 01:11:36;;;;;;;3.15;2.85;;;;;;;13.68;97.89;100367.94;5045492;28;20057;-67
2023/05/12 01:14:02;;;;;;;8.45;2.90;;;;;;;13.81;97.76;100393.69;5075390;28;20628;-67
2023/05/12 01:16:35;;;;;;;3.92;2.67;;;;;;;13.78;97.17;100394.84;5109789;28;20020;-68
2023/05/12 01:19:05;;;;;;;4.63;3.00;;;;;;;13.70;97.28;100381.28;5110453;28;20131;-68
2023/05/12 01:21:30;;;;;;;3.20;2.60;;;;;;;13.73;97.56;100389.06;5108413;28;20282;-68
2023/05/12 01:24:00;;;;;;;3.22;2.92;;;;;;;13.64;97.87;100379.19;5109254;28;20075;-68
2023/05/12 01:26:28;;;;;;;2.90;2.70;;;;;;;13.73;98.17;100396.31;5108291;28;20024;-67
2023/05/12 01:28:54;;;;;;;3.70;3.00;;;;;;;13.73;98.34;100397.16;5108001;28;20034;-68
2023/05/12 01:31:20;;;;;;;4.55;3.00;;;;;;;13.71;97.94;100394.59;5108130;28;20088;-68
2023/05/12 01:33:46;;;;;;;4.93;2.95;;;;;;;13.71;97.86;100393.78;5109558;28;20024;-68
2023/05/12 01:36:11;;;;;;;5.07;2.83;;;;;;;13.56;98.16;100368.34;5109968;28;20440;-68
2023/05/12 01:38:37;;;;;;;4.20;2.53;;;;;;;13.67;98.09;100379.75;5109817;28;20031;-68
2023/05/12 01:41:02;;;;;;;4.38;3.22;;;;;;;13.73;98.03;100390.94;5092559;28;20067;-68
2023/05/12 01:43:28;;;;;;;7.55;3.15;;;;;;;13.78;97.81;100384.06;5109816;28;20051;-68
2023/05/12 01:45:53;;;;;;;3.83;3.42;;;;;;;13.74;97.50;100394.31;5098628;28;20080;-68
2023/05/12 01:48:19;;;;;;;3.50;2.83;;;;;;;13.71;98.28;100385.69;5109593;28;20232;-68
2023/05/12 01:50:44;;;;;;;6.65;3.72;;;;;;;13.69;98.92;100390.38;5109500;28;20023;-68
2023/05/12 01:53:09;;;;;;;3.80;3.17;;;;;;;13.69;99.66;100393.06;5109231;28;20023;-67
2023/05/12 01:55:35;;;;;;;3.17;2.88;;;;;;;13.67;99.99;100395.91;5109422;28;20063;-67
2023/05/12 01:58:01;;;;;;;3.28;2.97;;;;;;;13.53;99.90;100365.94;5109559;28;20479;-68
2023/05/12 02:00:26;;;;;;;4.00;3.13;;;;;;;13.68;99.76;100394.06;5110136;28;20027;-64
2023/05/12 02:02:52;;;;;;;4.57;2.92;;;;;;;13.53;100.00;100374.03;5109938;28;20047;-63
2023/05/12 02:05:18;;;;;;;3.58;2.83;;;;;;;13.66;99.69;100388.84;5109189;28;20398;-63
2023/05/12 02:07:43;;;;;;;4.60;3.35;;;;;;;13.62;100.00;100389.28;5109482;28;20461;-63
2023/05/12 02:10:09;;;;;;;4.55;3.30;;;;;;;13.62;100.00;100394.69;5108880;28;20161;-63
2023/05/12 02:12:34;;;;;;;3.85;3.40;;;;;;;13.59;100.00;100403.06;5109215;28;20027;-63
2023/05/12 02:15:00;;;;;;;3.97;3.30;;;;;;;13.58;100.00;100407.59;5106557;28;20027;-64
2023/05/12 02:17:27;;;;;;;4.28;3.13;;;;;;;13.44;100.00;100394.66;5109370;28;20525;-63
2023/05/12 02:19:53;;;;;;;5.38;3.83;;;;;;;13.51;100.00;100408.34;5109541;28;20088;-63
2023/05/12 02:22:18;;;;;;;5.50;3.50;;;;;;;13.39;100.00;100393.41;5108718;28;20036;-63
2023/05/12 02:24:44;;;;;;;4.50;3.50;;;;;;;13.42;100.00;100412.81;5108605;28;20047;-64
2023/05/12 02:27:09;;;;;;;5.38;3.50;;;;;;;13.46;100.00;100411.53;5109117;28;20085;-68
2023/05/12 02:29:36;;;;;;;4.32;3.92;;;;;;;13.35;100.00;100400.94;5109545;28;20035;-68
2023/05/12 02:32:02;;;;;;;6.75;3.53;;;;;;;13.45;100.00;100417.91;5109233;28;20039;-68
2023/05/12 02:34:27;;;;;;;4.00;3.60;;;;;;;13.50;100.00;100412.06;5109055;28;20023;-68
2023/05/12 02:36:53;;;;;;;5.25;3.35;;;;;;;13.47;100.00;100424.00;5108727;28;20035;-68
2023/05/12 02:39:18;;;;;;;6.57;3.50;;;;;;;13.33;100.00;100404.78;5108320;28;20042;-68
2023/05/12 02:41:44;;;;;;;4.93;3.58;;;;;;;13.34;100.00;100414.56;5108711;28;20015;-68
2023/05/12 02:44:09;;;;;;;7.15;3.58;;;;;;;13.29;100.00;100398.00;5108251;28;20035;-68
2023/05/12 02:46:34;;;;;;;4.13;3.75;;;;;;;13.35;100.00;100418.97;5108805;28;20023;-68
2023/05/12 02:49:00;;;;;;;5.43;3.60;;;;;;;13.37;100.00;100425.91;5108570;28;20027;-68
2023/05/12 02:51:25;;;;;;;6.13;3.97;;;;;;;13.35;100.00;100418.97;5108977;27;20027;-68
2023/05/12 02:53:51;;;;;;;5.55;3.72;;;;;;;13.31;100.00;100412.16;5108765;28;20102;-68
2023/05/12 02:56:17;;;;;;;4.10;3.70;;;;;;;13.22;100.00;100408.53;5108679;28;20023;-68
2023/05/12 02:58:42;;;;;;;5.80;4.00;;;;;;;13.29;100.00;100425.78;5108827;28;20031;-68
2023/05/12 03:01:08;;;;;;;5.47;4.25;;;;;;;13.18;100.00;100404.44;5107225;28;20035;-68
2023/05/12 03:03:33;;;;;;;4.60;3.75;;;;;;;13.14;100.00;100404.88;5108896;28;20048;-68
2023/05/12 03:05:59;;;;;;;4.25;3.65;;;;;;;13.29;100.00;100428.47;5108348;28;20031;-68
2023/05/12 03:08:24;;;;;;;7.38;3.80;;;;;;;13.12;100.00;100394.25;5108500;28;20032;-68
2023/05/12 03:10:50;;;;;;;5.00;3.88;;;;;;;13.24;100.00;100427.22;5092272;28;20050;-68
2023/05/12 03:13:15;;;;;;;5.80;4.03;;;;;;;13.20;100.00;100410.53;5108178;28;20460;-68
2023/05/12 03:15:40;;;;;;;4.68;3.38;;;;;;;13.23;100.00;100418.28;5108336;28;20035;-68
2023/05/12 03:18:06;;;;;;;5.45;4.20;;;;;;;13.20;100.00;100415.06;5108023;28;20102;-64
2023/05/12 03:20:31;;;;;;;5.50;4.38;;;;;;;13.22;100.00;100418.47;5108418;28;20026;-64
2023/05/12 03:22:57;;;;;;;6.43;4.55;;;;;;;13.12;100.00;100399.66;5107809;28;20156;-64
2023/05/12 03:25:22;;;;;;;5.38;4.88;;;;;;;13.16;100.00;100410.97;5108188;28;20027;-64
2023/05/12 03:27:48;;;;;;;4.82;4.20;;;;;;;13.16;100.00;100413.66;5108391;28;20083;-64
2023/05/12 03:30:13;;;;;;;6.00;4.68;;;;;;;13.05;100.00;100405.75;5108460;28;20132;-64
2023/05/12 03:32:39;;;;;;;5.90;4.13;;;;;;;13.17;100.00;100418.91;5109029;28;20039;-65
2023/05/12 03:35:06;;;;;;;5.10;4.13;;;;;;;12.97;100.00;100403.78;5108175;28;20015;-64
2023/05/12 03:37:31;;;;;;;7.00;4.78;;;;;;;13.10;100.00;100420.47;5108295;28;20022;-64
2023/05/12 03:39:57;;;;;;;5.35;3.78;;;;;;;13.08;100.00;100421.63;5108301;28;20023;-65
2023/05/12 03:42:23;;;;;;;4.18;3.83;;;;;;;13.06;100.00;100424.47;5108003;28;20028;-64
2023/05/12 03:44:50;;;;;;;5.82;4.15;;;;;;;13.02;100.00;100419.53;5108587;28;20107;-63
2023/05/12 03:47:16;;;;;;;4.20;3.78;;;;;;;13.05;100.00;100417.41;5103071;28;20028;-64
2023/05/12 03:49:41;;;;;;;5.35;4.30;;;;;;;13.03;100.00;100430.16;5108399;28;20034;-65
2023/05/12 03:52:07;;;;;;;4.03;3.63;;;;;;;13.04;100.00;100428.31;5107937;28;20034;-65
2023/05/12 03:54:32;;;;;;;5.85;3.90;;;;;;;12.96;100.00;100417.41;5108313;28;20077;-63
2023/05/12 03:56:58;;;;;;;4.75;4.22;;;;;;;12.86;100.00;100414.75;5107572;28;20030;-64
2023/05/12 03:59:23;;;;;;;5.25;3.97;;;;;;;12.95;100.00;100445.31;5107576;28;20050;-64
2023/05/12 04:01:49;;;;;;;7.25;3.80;;;;;;;12.95;100.00;100456.94;5107598;28;20051;-64
2023/05/12 04:04:14;;;;;;;5.88;4.10;;;;;;;12.81;100.00;100435.88;5107585;28;20037;-68
2023/05/12 04:06:40;;;;;;;5.22;4.00;;;;;;;12.88;100.00;100453.13;5107836;28;20019;-68
2023/05/12 04:09:05;;;;;;;5.20;3.90;;;;;;;12.85;100.00;100441.81;5107948;28;20115;-68
2023/05/12 04:11:31;;;;;;;5.90;3.88;;;;;;;12.86;100.00;100456.94;5108236;28;20030;-68
2023/05/12 04:13:56;;;;;;;6.63;4.85;;;;;;;12.87;100.00;100459.50;5108152;28;20045;-68
2023/05/12 04:16:22;;;;;;;6.20;4.10;;;;;;;12.72;100.00;100439.44;5108013;28;20364;-68
2023/05/12 04:18:48;;;;;;;5.38;4.40;;;;;;;12.73;100.00;100448.34;5106857;28;20032;-68
2023/05/12 04:21:13;;;;;;;5.88;3.92;;;;;;;12.81;100.00;100470.88;5109372;28;20666;-68
2023/05/12 04:23:39;;;;;;;5.03;4.22;;;;;;;12.69;100.00;100437.03;5111694;28;20499;-67
2023/05/12 04:26:05;;;;;;;6.80;4.80;;;;;;;12.83;100.00;100476.94;5093397;28;20032;-67
2023/05/12 04:28:31;;;;;;;5.38;4.22;;;;;;;12.83;100.00;100476.94;5086913;28;20038;-66
2023/05/12 04:31:02;;;;;;;5.80;4.18;;;;;;;12.59;100.00;100433.50;5094075;28;20168;-67
2023/05/12 04:33:27;;;;;;;5.43;3.97;;;;;;;12.77;100.00;100460.53;5111777;28;20413;-68
2023/05/12 04:35:56;;;;;;;5.60;4.72;;;;;;;12.66;100.00;100447.22;5111703;28;20023;-67
2023/05/12 04:38:22;;;;;;;4.80;4.10;;;;;;;12.84;100.00;100483.19;5111492;28;20030;-68
2023/05/12 04:40:47;;;;;;;5.13;4.40;;;;;;;12.83;100.00;100481.50;5111593;28;20028;-67
2023/05/12 04:43:12;;;;;;;4.70;4.00;;;;;;;12.82;100.00;100480.63;5111420;28;20023;-67
2023/05/12 04:45:38;;;;;;;5.38;4.30;;;;;;;12.73;100.00;100476.09;5110234;28;20027;-67
2023/05/12 04:48:03;;;;;;;5.00;4.25;;;;;;;12.80;100.00;100488.00;5111053;28;20451;-67
2023/05/12 04:50:29;;;;;;;5.43;4.22;;;;;;;12.78;100.00;100481.06;5110870;28;20019;-63
2023/05/12 04:52:54;;;;;;;5.32;4.00;;;;;;;12.83;100.00;100497.66;5111038;28;20169;-63
2023/05/12 04:55:20;;;;;;;7.55;4.50;;;;;;;12.80;100.00;100495.22;5097486;28;20114;-63
2023/05/12 04:57:45;;;;;;;6.25;4.03;;;;;;;12.69;100.00;100479.22;5110220;28;20031;-64
2023/05/12 05:00:11;;;;;;;5.18;3.75;;;;;;;12.81;100.00;100496.94;5110006;28;20032;-62
2023/05/12 05:02:37;;;;;;;6.35;4.07;;;;;;;12.81;100.00;100497.78;5110313;28;20072;-63
2023/05/12 05:05:03;;;;;;;6.68;4.43;;;;;;;12.82;100.00;100506.69;5110000;28;20026;-63
2023/05/12 05:07:29;;;;;;;6.28;4.10;;;;;;;12.72;100.00;100478.94;5109826;28;20054;-63
2023/05/12 05:09:54;;;;;;;13.85;4.07;;;;;;;12.66;100.00;100472.31;5103113;28;20053;-63
2023/05/12 05:12:19;;;;;;;5.53;3.83;;;;;;;12.80;100.00;100498.75;5109733;28;20774;-64
2023/05/12 05:14:45;;;;;;;4.07;3.63;;;;;;;12.79;100.00;100498.91;5110191;28;20475;-64
2023/05/12 05:17:11;;;;;;;6.40;3.72;;;;;;;12.79;100.00;100506.97;5109499;28;20030;-64
2023/05/12 05:19:37;;;;;;;4.43;3.53;;;;;;;12.78;100.00;100495.38;5098917;28;20027;-62
2023/05/12 05:22:03;;;;;;;4.82;4.07;;;;;;;12.68;100.00;100482.94;5109609;28;20085;-63
2023/05/12 05:24:29;;;;;;;6.10;4.20;;;;;;;12.64;100.00;100466.19;5109602;28;20044;-63
2023/05/12 05:26:54;;;;;;;5.00;3.97;;;;;;;12.82;100.00;100498.63;5110123;28;20084;-63
2023/05/12 05:29:20;;;;;;;4.35;3.83;;;;;;;12.74;100.00;100485.03;5091190;28;20051;-62
2023/05/12 05:31:45;;;;;;;4.07;3.65;;;;;;;12.81;100.00;100505.00;5109713;28;20396;-63
2023/05/12 05:34:11;;;;;;;5.70;3.92;;;;;;;12.68;100.00;100477.53;5107620;28;20116;-63
2023/05/12 05:36:36;;;;;;;4.90;3.92;;;;;;;12.73;100.00;100477.94;5109004;28;20038;-63
2023/05/12 05:39:02;;;;;;;5.47;3.90;;;;;;;12.70;100.00;100480.91;5109221;28;20032;-63
2023/05/12 05:41:27;;;;;;;6.60;4.25;;;;;;;12.75;100.00;100494.81;5109548;28;20034;-63
2023/05/12 05:43:53;;;;;;;6.05;4.25;;;;;;;12.83;100.00;100501.16;5108135;28;20389;-64
2023/05/12 05:46:18;;;;;;;5.07;3.90;;;;;;;12.85;100.00;100501.00;5108990;28;20484;-63
2023/05/12 05:48:43;;;;;;;4.72;3.78;;;;;;;12.80;100.00;100485.28;5109301;28;20028;-63
2023/05/12 05:51:10;;;;;;;5.53;4.57;;;;;;;12.87;100.00;100493.66;5091864;28;20108;-62
2023/05/12 05:53:36;;;;;;;4.30;3.90;;;;;;;12.87;100.00;100505.25;5109474;28;20434;-62
2023/05/12 05:56:01;;;;;;;5.00;3.78;;;;;;;12.76;100.00;100481.22;5108805;28;20019;-63
2023/05/12 05:58:27;;;;;;;5.93;4.63;;;;;;;12.86;100.00;100491.94;5109302;28;20311;-62
2023/05/12 06:00:52;;;;;;;5.93;4.10;;;;;;;12.89;100.00;100491.66;5109388;28;20032;-63
2023/05/12 06:03:18;;;;;;;5.22;4.32;;;;;;;12.88;100.00;100498.03;5109275;28;20086;-62
2023/05/12 06:05:43;;;;;;;5.80;4.20;;;;;;;12.87;100.00;100504.44;5109294;28;20020;-63
2023/05/12 06:08:12;;;;;;;6.10;4.43;;;;;;;12.78;100.00;100479.22;5109218;28;20027;-63
2023/05/12 06:10:37;;;;;;;6.47;4.75;;;;;;;12.75;100.00;100486.72;5109388;28;20365;-63
2023/05/12 06:13:03;;;;;;;5.47;4.20;;;;;;;12.81;100.00;100497.78;5109233;27;20080;-62
2023/05/12 06:15:28;;;;;;;6.85;4.38;;;;;;;12.85;100.00;100503.72;5103662;28;20035;-62
2023/05/12 06:17:54;;;;;;;5.95;4.60;;;;;;;12.73;100.00;100486.00;5108556;28;20037;-63
2023/05/12 06:20:19;;;;;;;5.60;4.53;;;;;;;12.81;100.00;100502.31;5108552;28;20030;-63
2023/05/12 06:22:45;;;;;;;5.70;4.57;;;;;;;12.82;100.00;100504.00;5108789;28;20070;-63
2023/05/12 06:25:10;;;;;;;5.55;4.38;;;;;;;12.86;100.00;100511.63;5108728;28;20043;-63
2023/05/12 06:27:36;;;;;;;5.70;4.75;;;;;;;12.82;100.00;100507.53;5108198;28;20027;-62
2023/05/12 06:30:01;;;;;;;11.10;4.38;;;;;;;12.83;100.00;100516.47;5107126;28;20035;-62
2023/05/12 06:32:27;;;;;;;5.43;4.30;;;;;;;12.74;100.00;100506.56;5106464;28;20032;-63
2023/05/12 06:34:52;;;;;;;4.85;4.22;;;;;;;12.72;100.00;100492.41;5106605;28;20031;-64
2023/05/12 06:37:17;;;;;;;7.30;4.15;;;;;;;12.66;100.00;100488.44;5106500;28;20020;-63
2023/05/12 06:39:43;;;;;;;6.10;4.47;;;;;;;12.79;100.00;100523.97;5106212;28;20027;-63
2023/05/12 06:42:10;;;;;;;5.22;4.50;;;;;;;12.64;100.00;100493.13;5105012;28;20027;-63
2023/05/12 06:44:35;;;;;;;5.43;4.78;;;;;;;12.79;100.00;100506.97;5092623;28;20034;-62
2023/05/12 06:47:01;;;;;;;5.43;4.22;;;;;;;12.80;100.00;100514.91;5108539;28;20028;-63
2023/05/12 06:49:26;;;;;;;5.63;4.50;;;;;;;12.76;100.00;100515.34;5105782;28;20107;-62
2023/05/12 06:51:52;;;;;;;6.95;4.70;;;;;;;12.83;100.00;100541.53;5108325;28;20396;-62
2023/05/12 06:54:17;;;;;;;5.50;3.70;;;;;;;12.80;100.00;100531.06;5108069;28;20498;-62
2023/05/12 06:56:43;;;;;;;5.30;4.18;;;;;;;12.72;100.00;100516.63;5107019;28;20031;-63
2023/05/12 06:59:08;;;;;;;6.68;4.20;;;;;;;12.83;100.00;100529.94;5105547;28;20027;-63
2023/05/12 07:01:34;;;;;;;6.82;4.03;;;;;;;12.80;100.00;100530.22;5107384;28;20442;-68
2023/05/12 07:03:59;;;;;;;5.95;4.07;;;;;;;12.69;100.00;100512.38;5108033;28;20050;-67
2023/05/12 07:06:27;;;;;;;5.57;3.72;;;;;;;12.76;100.00;100523.41;5089439;28;20023;-68
2023/05/12 07:08:54;;;;;;;5.32;4.47;;;;;;;12.70;100.00;100522.16;5108339;28;20383;-67
2023/05/12 07:11:20;;;;;;;4.47;3.70;;;;;;;12.68;100.00;100512.53;5107321;28;20229;-67
2023/05/12 07:13:46;;;;;;;5.90;3.50;;;;;;;12.73;100.00;100512.94;5108011;28;20115;-67
2023/05/12 07:16:12;;;;;;;4.60;4.20;;;;;;;12.71;100.00;100521.13;5107801;28;20049;-67
2023/05/12 07:18:37;;;;;;;6.95;3.75;;;;;;;12.71;100.00;100521.13;5104468;28;20110;-67
2023/05/12 07:21:03;;;;;;;4.15;3.67;;;;;;;12.77;100.00;100517.06;5107987;28;20399;-67
2023/05/12 07:23:29;;;;;;;7.38;3.92;;;;;;;12.72;100.00;100513.94;5107791;28;20040;-62
2023/05/12 07:25:55;;;;;;;6.10;3.70;;;;;;;12.70;100.00;100513.22;5106493;28;20119;-66
2023/05/12 07:28:20;;;;;;;4.03;3.45;;;;;;;12.57;100.00;100491.13;5107685;28;20118;-66
2023/05/12 07:30:46;;;;;;;5.43;3.53;;;;;;;12.71;100.00;100515.75;5107762;28;20023;-67
2023/05/12 07:33:11;;;;;;;4.88;3.40;;;;;;;12.53;100.00;100478.97;5107607;28;20024;-67
2023/05/12 07:35:37;;;;;;;4.57;3.13;;;;;;;12.57;100.00;100481.22;5108277;28;20116;-68
2023/05/12 07:38:02;;;;;;;4.55;3.75;;;;;;;12.70;100.00;100503.31;5107816;28;20027;-67
2023/05/12 07:40:28;;;;;;;4.88;3.60;;;;;;;12.72;100.00;100511.25;5108650;28;20123;-67
2023/05/12 07:42:53;;;;;;;4.38;3.85;;;;;;;12.69;100.00;100507.00;5108481;28;20050;-67
2023/05/12 07:45:22;;;;;;;4.45;4.03;;;;;;;12.67;100.00;100508.16;5107845;28;20019;-67
2023/05/12 07:47:49;;;;;;;5.80;3.80;;;;;;;12.78;100.00;100521.44;5106372;28;20200;-67
2023/05/12 07:50:15;;;;;;;4.85;3.95;;;;;;;12.76;100.00;100508.13;5107224;28;20468;-67
2023/05/12 07:52:52;;;;;;;5.65;3.85;;;;;;;12.83;100.00;100524.56;5107545;28;20360;-67
2023/05/12 07:55:19;;;;;;;4.85;3.90;;;;;;;12.82;100.00;100518.31;5107209;28;20561;-67
2023/05/12 07:57:45;;;;;;;3.63;3.33;;;;;;;12.88;100.00;100514.19;5111882;28;20122;-67
2023/05/12 08:00:12;;;;;;;5.38;3.70;;;;;;;12.91;100.00;100521.97;5111383;28;20023;-67
2023/05/12 08:02:37;;;;;;;5.35;3.45;;;;;;;12.97;100.00;100524.09;5111769;28;20570;-67
2023/05/12 08:05:03;;;;;;;4.50;3.42;;;;;;;13.00;100.00;100518.47;5111092;28;20031;-66
2023/05/12 08:07:29;;;;;;;3.80;3.50;;;;;;;13.03;100.00;100521.69;5111776;28;20028;-67
2023/05/12 08:09:54;;;;;;;4.22;3.83;;;;;;;13.05;100.00;100524.25;5112044;28;20034;-67
2023/05/12 08:12:20;;;;;;;4.18;3.60;;;;;;;13.08;100.00;100515.88;5111221;28;20051;-67
2023/05/12 08:14:45;;;;;;;3.67;3.35;;;;;;;13.15;100.00;100527.75;5111562;28;20028;-68
2023/05/12 08:17:11;;;;;;;5.88;3.80;;;;;;;13.16;100.00;100522.22;5111077;28;20027;-67
2023/05/12 08:19:36;;;;;;;3.97;3.65;;;;;;;13.14;100.00;100512.59;5111372;28;20102;-67
2023/05/12 08:22:02;;;;;;;4.72;3.95;;;;;;;13.26;100.00;100520.34;5111095;28;20028;-67
2023/05/12 08:24:27;;;;;;;5.15;3.88;;;;;;;13.20;100.00;100512.88;5093001;28;20547;-67
2023/05/12 08:26:53;;;;;;;3.70;3.30;;;;;;;13.14;100.00;100499.13;5111250;28;20096;-62
2023/05/12 08:29:18;;;;;;;4.38;3.67;;;;;;;13.28;100.00;100522.91;5110672;28;20038;-62
2023/05/12 08:31:44;;;;;;;7.47;3.95;;;;;;;13.30;100.00;100521.78;5111066;28;20031;-62
2023/05/12 08:34:09;;;;;;;4.28;3.13;;;;;;;13.35;100.00;100532.13;5110911;28;20027;-63
2023/05/12 08:36:35;;;;;;;3.63;3.33;;;;;;;13.32;100.00;100538.63;5110977;28;20081;-67
2023/05/12 08:39:02;;;;;;;3.80;3.28;;;;;;;13.06;100.00;100494.47;5110776;28;20084;-68
2023/05/12 08:41:39;;;;;;;4.88;3.38;;;;;;;13.32;100.00;100537.78;5111622;28;20085;-62
2023/05/12 08:44:05;;;;;;;3.30;3.00;;;;;;;13.28;100.00;100526.44;5111173;28;20059;-62
2023/05/12 08:46:31;;;;;;;3.75;3.40;;;;;;;13.39;100.00;100528.13;5111406;28;20065;-62
2023/05/12 08:49:00;;;;;;;3.70;3.40;;;;;;;13.42;100.00;100528.66;5109874;28;20024;-61
2023/05/12 08:51:28;;;;;;;3.78;2.88;;;;;;;13.52;100.00;100517.84;5111156;27;20032;-62
2023/05/12 08:53:54;;;;;;;3.63;3.10;;;;;;;13.60;100.00;100526.03;5110732;28;20039;-61
2023/05/12 08:56:21;;;;;;;4.45;2.70;;;;;;;13.63;100.00;100528.44;5110259;28;20410;-62
2023/05/12 08:58:47;;;;;;;3.45;3.00;;;;;;;13.54;100.00;100505.91;5110519;28;20384;-62
2023/05/12 09:01:13;;;;;;;5.13;3.20;;;;;;;13.62;100.00;100513.28;5110159;28;20034;-63
2023/05/12 09:03:39;;;;;;;2.92;2.63;;;;;;;13.59;100.00;100514.44;5103483;28;20039;-62
2023/05/12 09:06:05;;;;;;;3.80;2.58;;;;;;;13.73;100.00;100524.69;5109880;28;20503;-62
2023/05/12 09:08:32;;;;;;;3.35;2.78;;;;;;;13.80;100.00;100519.53;5109439;28;20020;-62
2023/05/12 09:10:58;;;;;;;3.30;2.83;;;;;;;13.81;100.00;100523.97;5110274;28;20051;-62
2023/05/12 09:13:42;;;;;;;5.60;3.50;;;;;;;13.85;100.00;100529.88;5109850;28;20040;-61
2023/05/12 09:16:13;;;;;;;4.63;2.80;;;;;;;13.87;100.00;100520.66;5110331;28;20460;-68
2023/05/12 09:18:56;;;;;;;4.22;2.75;;;;;;;13.86;100.00;100523.50;5111056;28;20031;-62
2023/05/12 09:21:22;;;;;;;3.10;2.88;;;;;;;13.89;100.00;100534.00;5109799;28;20210;-63
2023/05/12 09:24:04;;;;;;;4.85;3.35;;;;;;;13.94;100.00;100537.94;5110749;28;20048;-62
2023/05/12 09:26:31;;;;;;;2.78;2.58;;;;;;;13.97;99.91;100537.63;5110794;28;20030;-62
2023/05/12 09:29:05;;;;;;;3.40;3.10;;;;;;;13.99;99.95;100532.09;5110666;28;20031;-63
2023/05/12 09:31:31;;;;;;;4.63;3.30;;;;;;;14.02;100.00;100523.69;5110612;28;20034;-61
2023/05/12 09:33:57;;;;;;;4.20;3.00;;;;;;;14.15;100.00;100537.66;5110337;28;20036;-62
2023/05/12 09:36:24;;;;;;;3.50;3.03;;;;;;;14.20;99.82;100540.75;5110039;28;20536;-63
2023/05/12 09:39:05;;;;;;;3.72;2.80;;;;;;;14.22;99.43;100544.97;5110555;28;20024;-62
2023/05/12 09:41:38;;;;;;;3.80;3.10;;;;;;;14.19;97.91;100518.31;5110695;27;20577;-62
2023/05/12 09:44:04;;;;;;;3.00;2.78;;;;;;;14.34;97.84;100541.09;5110124;28;20721;-62
2023/05/12 09:46:30;;;;;;;2.17;1.90;;;;;;;14.35;97.14;100550.06;5110202;28;20111;-62
2023/05/12 09:48:56;;;;;;;2.83;2.45;;;;;;;14.37;94.93;100553.44;5110090;28;20543;-62
2023/05/12 09:51:22;;;;;;;4.20;2.88;;;;;;;14.39;94.29;100555.00;5109769;28;20038;-62
2023/05/12 09:53:48;;;;;;;2.55;2.17;;;;;;;14.39;94.13;100543.34;5109914;28;20015;-61
2023/05/12 09:56:15;;;;;;;3.22;2.88;;;;;;;14.40;92.79;100556.69;5109777;28;20035;-63
2023/05/12 09:58:43;;;;;;;3.35;2.50;;;;;;;14.43;91.92;100550.13;5110182;28;20031;-68
2023/05/12 10:01:11;;;;;;;4.25;2.50;;;;;;;14.47;91.42;100556.91;5109659;28;20027;-69
2023/05/12 10:03:38;;;;;;;3.08;2.35;;;;;;;14.47;91.44;100552.38;5110103;28;20476;-68
2023/05/12 10:06:06;;;;;;;2.85;2.45;;;;;;;14.43;88.98;100550.97;5109698;28;20429;-68
2023/05/12 10:08:42;;;;;;;2.78;2.30;;;;;;;14.46;87.99;100550.66;5110177;28;20088;-68
2023/05/12 10:11:09;;;;;;;5.63;2.35;;;;;;;14.48;87.96;100554.03;5107601;28;20019;-68
2023/05/12 10:13:35;;;;;;;4.35;2.63;;;;;;;14.50;89.24;100553.91;5107123;28;20499;-67
2023/05/12 10:16:02;;;;;;;3.03;2.20;;;;;;;14.35;87.77;100529.28;5109510;28;20024;-67
2023/05/12 10:18:28;;;;;;;3.78;2.78;;;;;;;14.50;86.94;100551.19;5109447;28;20435;-69
2023/05/12 10:20:56;;;;;;;2.92;2.55;;;;;;;14.34;87.90;100526.75;5109743;28;20162;-68
2023/05/12 10:23:23;;;;;;;3.20;2.45;;;;;;;14.51;87.21;100545.66;5109142;28;20032;-68
2023/05/12 10:25:49;;;;;;;2.90;2.65;;;;;;;14.48;87.31;100531.63;5109256;28;20053;-68
2023/05/12 10:28:15;;;;;;;2.83;2.30;;;;;;;14.40;87.29;100512.66;5109223;28;20031;-68
2023/05/12 10:30:42;;;;;;;4.03;3.10;;;;;;;14.63;87.38;100547.13;5099667;28;20503;-68
2023/05/12 10:33:10;;;;;;;4.35;2.88;;;;;;;14.67;87.32;100545.78;5109038;28;20092;-68
2023/05/12 10:35:36;;;;;;;4.05;2.13;;;;;;;14.69;86.78;100549.19;5109303;28;20581;-68
2023/05/12 10:38:06;;;;;;;4.15;2.67;;;;;;;14.69;85.16;100543.81;5106783;28;20027;-68
2023/05/12 10:40:32;;;;;;;5.22;2.53;;;;;;;14.70;84.41;100548.19;5109312;28;20058;-68
2023/05/12 10:43:01;;;;;;;3.08;2.20;;;;;;;14.72;83.47;100543.50;5108904;28;20468;-68
2023/05/12 10:45:27;;;;;;;3.17;2.85;;;;;;;14.68;82.86;100539.41;5108959;28;20023;-68
2023/05/12 10:48:06;;;;;;;3.10;2.80;;;;;;;14.74;81.71;100552.28;5108954;28;20518;-67
2023/05/12 10:50:32;;;;;;;3.13;2.47;;;;;;;14.70;81.67;100540.09;5109300;28;20102;-67
2023/05/12 10:52:57;;;;;;;6.78;2.70;;;;;;;14.76;82.88;100542.16;5108992;28;20028;-68
2023/05/12 10:55:31;;;;;;;5.25;3.28;;;;;;;14.77;83.53;100546.56;5108962;28;20034;-67
2023/05/12 10:58:12;;;;;;;9.38;7.95;;;;;;;14.79;83.27;100552.66;5108686;28;20051;-68
2023/05/12 11:00:53;;;;;;;7.53;6.18;;;;;;;14.71;83.74;100516.66;5109045;28;20434;-67
2023/05/12 11:03:23;;;;;;;5.45;3.80;;;;;;;14.83;83.92;100542.41;5104643;28;20048;-68
2023/05/12 11:06:04;;;;;;;5.55;3.20;;;;;;;14.83;83.75;100545.13;5108880;28;20369;-67
2023/05/12 11:08:31;;;;;;;5.18;3.13;;;;;;;14.82;82.98;100533.44;5107310;28;20028;-69
2023/05/12 11:10:56;;;;;;;4.25;3.17;;;;;;;14.81;81.81;100542.56;5108774;28;20403;-68
2023/05/12 11:13:23;;;;;;;3.92;3.28;;;;;;;14.81;80.18;100547.97;5108765;28;20028;-68
2023/05/12 11:15:49;;;;;;;4.28;3.03;;;;;;;14.79;79.96;100546.41;5108719;28;20020;-68